Time;durP1;ratioP1;P1;durP2;ratioP2;P2;SDS_P1;SDS_P2;PMS_P1;PMS_P2;Temp;Humidity;BMP_temperature;BMP_pressure;BME280_temperature;BME280_humidity;BME280_pressure;Samples;Min_cycle;Max_cycle;Signal;HPM_P1;HPM_P2
2022/01/04 00:01:34;;;;;;;10.57;7.00;;;9.60;99.90;;;;;;5042169;28;20295;-60
2022/01/04 00:03:59;;;;;;;9.23;7.07;;;9.60;99.90;;;;;;5045463;28;20021;-61
2022/01/04 00:06:25;;;;;;;14.10;7.78;;;9.60;99.90;;;;;;5036503;28;20117;-61
2022/01/04 00:08:50;;;;;;;9.70;7.30;;;9.60;99.90;;;;;;5037133;28;20112;-60
2022/01/04 00:11:31;;;;;;;10.18;7.25;;;9.60;99.90;;;;;;5037773;28;20030;-61
2022/01/04 00:13:56;;;;;;;10.68;6.75;;;9.50;99.90;;;;;;5033482;28;20085;-61
2022/01/04 00:16:22;;;;;;;10.43;7.35;;;9.60;99.90;;;;;;5039398;28;20476;-61
2022/01/04 00:18:47;;;;;;;13.85;8.30;;;9.60;99.90;;;;;;5041211;28;20036;-61
2022/01/04 00:21:13;;;;;;;9.98;7.22;;;9.60;99.90;;;;;;5043667;28;20037;-61
2022/01/04 00:23:38;;;;;;;11.52;8.25;;;9.50;99.90;;;;;;5046816;28;20027;-60
2022/01/04 00:26:04;;;;;;;11.40;7.70;;;9.60;99.90;;;;;;5049042;28;20447;-61
2022/01/04 00:28:30;;;;;;;8.02;7.15;;;9.60;99.90;;;;;;5043220;28;20029;-60
2022/01/04 00:30:56;;;;;;;10.35;7.45;;;9.60;99.90;;;;;;5040102;28;20391;-61
2022/01/04 00:33:22;;;;;;;12.27;9.02;;;9.50;99.90;;;;;;5043298;28;20036;-61
2022/01/04 00:35:47;;;;;;;11.23;8.57;;;9.60;99.90;;;;;;5034264;28;20030;-61
2022/01/04 00:38:13;;;;;;;10.02;7.88;;;9.60;99.90;;;;;;5041416;28;20028;-61
2022/01/04 00:40:38;;;;;;;11.68;8.52;;;9.50;99.90;;;;;;5043424;28;20128;-61
2022/01/04 00:43:05;;;;;;;9.10;7.35;;;9.50;99.90;;;;;;5043486;28;20092;-61
2022/01/04 00:45:31;;;;;;;13.55;8.23;;;9.50;99.90;;;;;;5043343;28;20060;-61
2022/01/04 00:50:24;;;;;;;15.20;8.50;;;9.50;99.90;;;;;;5045766;28;20088;-61
2022/01/04 00:52:50;;;;;;;13.38;8.80;;;9.50;99.90;;;;;;5043233;28;20041;-61
2022/01/04 00:55:16;;;;;;;12.10;7.93;;;9.40;99.90;;;;;;5040501;28;20029;-61
2022/01/04 00:57:42;;;;;;;12.43;8.30;;;9.50;99.90;;;;;;5036847;28;20025;-60
2022/01/04 01:00:10;;;;;;;14.38;9.50;;;9.50;99.90;;;;;;5036650;28;20029;-61
2022/01/04 01:02:36;;;;;;;10.13;9.13;;;9.50;99.90;;;;;;5040783;28;20067;-61
2022/01/04 01:05:02;;;;;;;12.02;9.85;;;9.50;99.90;;;;;;5041252;28;20063;-61
2022/01/04 01:07:28;;;;;;;12.50;10.05;;;9.50;99.90;;;;;;5040723;28;20028;-61
2022/01/04 01:10:18;;;;;;;14.98;10.70;;;9.50;99.90;;;;;;5043519;28;20053;-61
2022/01/04 01:12:44;;;;;;;14.35;10.45;;;9.50;99.90;;;;;;5038491;28;20384;-61
2022/01/04 01:15:10;;;;;;;15.65;12.30;;;9.40;99.90;;;;;;5043664;28;20040;-61
2022/01/04 01:17:36;;;;;;;15.27;10.90;;;9.40;99.90;;;;;;5039730;28;20025;-61
2022/01/04 01:20:04;;;;;;;11.45;10.15;;;9.40;99.90;;;;;;5046491;28;20029;-61
2022/01/04 01:22:29;;;;;;;13.65;10.60;;;9.40;99.90;;;;;;5039899;28;20033;-62
2022/01/04 01:24:55;;;;;;;11.88;9.70;;;9.40;99.90;;;;;;5042500;28;20102;-61
2022/01/04 01:27:20;;;;;;;11.40;9.65;;;9.40;99.90;;;;;;5040734;28;20428;-61
2022/01/04 01:29:46;;;;;;;16.08;10.52;;;9.40;99.90;;;;;;5032263;28;20029;-61
2022/01/04 01:32:11;;;;;;;13.10;10.27;;;9.40;99.90;;;;;;5028656;28;20107;-61
2022/01/04 01:34:37;;;;;;;19.05;11.65;;;9.30;99.90;;;;;;5037155;28;20047;-61
2022/01/04 01:37:03;;;;;;;14.68;10.20;;;9.30;99.90;;;;;;5044064;28;20035;-61
2022/01/04 01:39:28;;;;;;;13.60;10.45;;;9.30;99.90;;;;;;5043187;28;20033;-61
2022/01/04 01:41:54;;;;;;;10.60;9.43;;;9.30;99.90;;;;;;5034763;28;20030;-61
2022/01/04 01:44:21;;;;;;;14.48;10.13;;;9.30;99.90;;;;;;5033969;28;20021;-61
2022/01/04 01:46:46;;;;;;;13.48;10.25;;;9.30;99.90;;;;;;5039497;28;20424;-61
2022/01/04 01:49:12;;;;;;;14.50;9.45;;;9.20;99.90;;;;;;5030910;28;20103;-61
2022/01/04 01:51:37;;;;;;;14.80;9.30;;;9.20;99.90;;;;;;5034419;28;20034;-61
2022/01/04 01:54:04;;;;;;;11.63;9.07;;;9.20;99.90;;;;;;5040278;28;20038;-61
2022/01/04 01:56:29;;;;;;;12.93;9.93;;;9.20;99.90;;;;;;5035088;28;20061;-61
2022/01/04 01:58:56;;;;;;;12.07;10.18;;;9.20;99.90;;;;;;5034139;28;20103;-61
2022/01/04 02:01:22;;;;;;;12.50;9.73;;;9.20;99.90;;;;;;5042875;28;20025;-61
2022/01/04 02:03:48;;;;;;;12.98;9.88;;;9.20;99.90;;;;;;5039978;28;20039;-60
2022/01/04 02:06:13;;;;;;;14.48;10.25;;;9.20;99.90;;;;;;5042710;28;20029;-61
2022/01/04 02:08:39;;;;;;;14.25;10.68;;;9.20;99.90;;;;;;5035595;28;20397;-61
2022/01/04 02:11:05;;;;;;;12.57;9.95;;;9.20;99.90;;;;;;5048414;28;20497;-61
2022/01/04 02:13:31;;;;;;;11.50;8.70;;;9.20;99.90;;;;;;5047222;28;20031;-60
2022/01/04 02:15:57;;;;;;;10.77;9.13;;;9.20;99.90;;;;;;5048462;28;20029;-61
2022/01/04 02:18:22;;;;;;;11.18;9.18;;;9.20;99.90;;;;;;5046908;28;20029;-61
2022/01/04 02:20:48;;;;;;;15.02;9.13;;;9.20;99.90;;;;;;5041829;28;20115;-61
2022/01/04 02:23:14;;;;;;;10.65;8.45;;;9.20;99.90;;;;;;5044471;28;20033;-61
2022/01/04 02:25:39;;;;;;;11.18;8.77;;;9.20;99.90;;;;;;5042485;28;20148;-61
2022/01/04 02:28:05;;;;;;;12.82;8.98;;;9.20;99.90;;;;;;5043787;28;20056;-61
2022/01/04 02:30:31;;;;;;;9.88;8.20;;;9.20;99.90;;;;;;5039396;28;20060;-60
2022/01/04 02:32:56;;;;;;;10.73;7.43;;;9.20;99.90;;;;;;5044807;28;20029;-60
2022/01/04 02:35:25;;;;;;;10.10;8.82;;;9.20;99.90;;;;;;5039654;28;20029;-61
2022/01/04 02:37:56;;;;;;;12.35;8.55;;;9.20;99.90;;;;;;5044906;28;20048;-61
2022/01/04 02:40:21;;;;;;;11.75;7.68;;;9.10;99.90;;;;;;5039139;28;20559;-61
2022/01/04 02:42:47;;;;;;;10.32;7.25;;;9.10;99.90;;;;;;5045958;28;20128;-60
2022/01/04 02:45:12;;;;;;;9.43;7.70;;;9.10;99.90;;;;;;5044973;28;20523;-61
2022/01/04 02:47:39;;;;;;;9.30;7.05;;;9.10;99.90;;;;;;5044649;28;20728;-61
2022/01/04 02:50:06;;;;;;;8.98;7.30;;;9.10;99.90;;;;;;5047799;28;20025;-61
2022/01/04 02:52:33;;;;;;;10.20;8.13;;;9.10;99.90;;;;;;5046042;28;20457;-60
2022/01/04 02:55:00;;;;;;;10.75;8.15;;;9.10;99.90;;;;;;5041442;28;20472;-60
2022/01/04 02:57:26;;;;;;;11.68;7.88;;;9.10;99.90;;;;;;5042601;28;20025;-61
2022/01/04 02:59:51;;;;;;;10.40;8.02;;;9.00;99.90;;;;;;5042107;28;20248;-61
2022/01/04 03:02:17;;;;;;;20.77;9.40;;;9.00;99.90;;;;;;5047438;28;20035;-61
2022/01/04 03:04:42;;;;;;;11.93;8.75;;;9.00;99.90;;;;;;5036586;28;20033;-61
2022/01/04 03:07:08;;;;;;;11.10;8.05;;;9.00;99.90;;;;;;5042364;28;20050;-61
2022/01/04 03:09:34;;;;;;;13.13;9.20;;;9.00;99.90;;;;;;5041857;28;20040;-61
2022/01/04 03:11:59;;;;;;;10.30;8.55;;;9.00;99.90;;;;;;5044321;28;20040;-61
2022/01/04 03:14:25;;;;;;;14.23;10.23;;;9.00;99.90;;;;;;5047936;28;20029;-61
2022/01/04 03:16:50;;;;;;;13.07;9.07;;;8.90;99.90;;;;;;5040548;28;20024;-61
2022/01/04 03:19:16;;;;;;;11.40;9.77;;;8.90;99.90;;;;;;5044618;28;20040;-61
2022/01/04 03:21:44;;;;;;;11.88;10.35;;;8.90;99.90;;;;;;5046378;28;20024;-61
2022/01/04 03:24:13;;;;;;;12.13;9.65;;;8.90;99.90;;;;;;5048745;28;20040;-61
2022/01/04 03:26:39;;;;;;;15.50;10.68;;;8.90;99.90;;;;;;5042629;28;20021;-61
2022/01/04 03:29:07;;;;;;;14.93;11.68;;;8.90;99.90;;;;;;5048341;28;20472;-61
2022/01/04 03:31:33;;;;;;;15.07;10.55;;;8.90;99.90;;;;;;5048105;28;20624;-61
2022/01/04 03:33:59;;;;;;;15.32;11.93;;;8.90;99.90;;;;;;5047721;28;20017;-61
2022/01/04 03:36:25;;;;;;;13.27;11.07;;;8.90;99.90;;;;;;5044620;28;20030;-61
2022/01/04 03:38:52;;;;;;;15.13;11.57;;;8.90;99.90;;;;;;5046827;28;20021;-61
2022/01/04 03:41:19;;;;;;;15.70;11.07;;;8.80;99.90;;;;;;5048004;28;20052;-61
2022/01/04 03:43:45;;;;;;;16.50;11.43;;;8.90;99.90;;;;;;5042649;28;20108;-61
2022/01/04 03:46:11;;;;;;;14.40;11.30;;;8.90;99.90;;;;;;5045655;28;20557;-61
2022/01/04 03:48:37;;;;;;;14.80;11.30;;;8.80;99.90;;;;;;5043593;28;20417;-61
2022/01/04 03:51:04;;;;;;;13.23;10.23;;;8.80;99.90;;;;;;5048232;28;20070;-60
2022/01/04 03:53:29;;;;;;;14.52;10.68;;;8.80;99.90;;;;;;5047722;28;20380;-61
2022/01/04 03:55:56;;;;;;;13.75;11.10;;;8.80;99.90;;;;;;5047823;28;20462;-61
2022/01/04 03:58:22;;;;;;;13.75;10.88;;;8.80;99.90;;;;;;5045087;28;20469;-61
2022/01/04 04:00:47;;;;;;;12.10;10.63;;;8.80;99.90;;;;;;5045857;28;20029;-61
2022/01/04 04:03:13;;;;;;;15.13;11.05;;;8.80;99.90;;;;;;5049245;28;20032;-61
2022/01/04 04:05:38;;;;;;;15.68;12.20;;;8.80;99.90;;;;;;5044373;28;20025;-61
2022/01/04 04:08:04;;;;;;;17.35;12.82;;;8.80;99.90;;;;;;5038550;28;20155;-61
2022/01/04 04:10:30;;;;;;;16.45;12.35;;;8.80;99.90;;;;;;5047595;28;20380;-61
2022/01/04 04:12:55;;;;;;;17.60;13.38;;;8.80;99.90;;;;;;5044596;28;20122;-61
2022/01/04 04:15:21;;;;;;;17.33;12.88;;;8.80;99.90;;;;;;5047674;28;20498;-61
2022/01/04 04:17:47;;;;;;;18.17;13.73;;;8.80;99.90;;;;;;5047419;28;20469;-61
2022/01/04 04:20:13;;;;;;;17.63;13.75;;;8.80;99.90;;;;;;5039501;28;20488;-61
2022/01/04 04:22:39;;;;;;;19.45;13.48;;;8.70;99.90;;;;;;5044041;28;20070;-61
2022/01/04 04:25:05;;;;;;;15.35;12.02;;;8.70;99.90;;;;;;5050072;28;20036;-60
2022/01/04 04:27:31;;;;;;;15.82;12.90;;;8.70;99.90;;;;;;5048216;28;20028;-60
2022/01/04 04:29:57;;;;;;;15.45;13.07;;;8.80;99.90;;;;;;5046305;28;20036;-60
2022/01/04 04:32:22;;;;;;;17.17;13.07;;;8.70;99.90;;;;;;5048989;28;20588;-60
2022/01/04 04:34:48;;;;;;;18.17;12.82;;;8.70;99.90;;;;;;5045663;28;20014;-61
2022/01/04 04:37:13;;;;;;;15.63;12.07;;;8.70;99.90;;;;;;5044295;28;20033;-61
2022/01/04 04:39:39;;;;;;;15.40;11.68;;;8.70;99.90;;;;;;5049487;28;20104;-61
2022/01/04 04:42:05;;;;;;;21.38;11.95;;;8.70;99.90;;;;;;5046998;28;20064;-61
2022/01/04 04:44:30;;;;;;;17.17;11.82;;;8.70;99.90;;;;;;5046625;28;20029;-61
2022/01/04 04:46:57;;;;;;;17.20;11.48;;;8.70;99.90;;;;;;5047724;28;20041;-61
2022/01/04 04:49:22;;;;;;;13.75;11.65;;;8.70;99.90;;;;;;5049541;28;20033;-60
2022/01/04 04:51:48;;;;;;;15.48;11.63;;;8.70;99.90;;;;;;5045122;28;20048;-60
2022/01/04 04:54:13;;;;;;;15.02;11.75;;;8.70;99.90;;;;;;5038084;28;20506;-60
2022/01/04 04:56:39;;;;;;;15.30;11.05;;;8.70;99.90;;;;;;5045873;28;20013;-61
2022/01/04 04:59:09;;;;;;;15.10;12.02;;;8.70;99.90;;;;;;5045850;28;20017;-61
2022/01/04 05:01:35;;;;;;;16.20;11.98;;;8.70;99.90;;;;;;5043124;28;20071;-61
2022/01/04 05:04:01;;;;;;;15.45;11.55;;;8.70;99.90;;;;;;5043632;28;20032;-61
2022/01/04 05:06:27;;;;;;;16.60;11.75;;;8.70;99.90;;;;;;5041218;28;20021;-61
2022/01/04 05:08:53;;;;;;;12.32;10.52;;;8.70;99.90;;;;;;5040995;28;20159;-61
2022/01/04 05:11:18;;;;;;;14.93;11.55;;;8.70;99.90;;;;;;5046001;28;20045;-61
2022/01/04 05:13:44;;;;;;;17.17;11.90;;;8.70;99.90;;;;;;5048932;28;20128;-61
2022/01/04 05:16:10;;;;;;;16.08;11.88;;;8.70;99.90;;;;;;5049074;28;20104;-61
2022/01/04 05:18:35;;;;;;;17.33;12.30;;;8.70;99.90;;;;;;5040942;28;20481;-61
2022/01/04 05:21:01;;;;;;;12.68;10.27;;;8.70;99.90;;;;;;5043255;28;20496;-61
2022/01/04 05:23:27;;;;;;;13.77;11.15;;;8.60;99.90;;;;;;5045118;28;20040;-60
2022/01/04 05:25:52;;;;;;;17.48;12.02;;;8.60;99.90;;;;;;5042478;28;20521;-60
2022/01/04 05:28:18;;;;;;;16.35;12.00;;;8.60;99.90;;;;;;5046115;28;20029;-60
2022/01/04 05:30:43;;;;;;;15.05;11.85;;;8.60;99.90;;;;;;5047755;28;20036;-61
2022/01/04 05:33:09;;;;;;;15.38;12.15;;;8.60;99.90;;;;;;5038730;28;20380;-61
2022/01/04 05:35:34;;;;;;;14.27;11.10;;;8.50;99.90;;;;;;5044959;28;20139;-61
2022/01/04 05:38:00;;;;;;;13.57;10.80;;;8.50;99.90;;;;;;5042837;28;20036;-61
2022/01/04 05:40:26;;;;;;;15.55;11.65;;;8.50;99.90;;;;;;5042072;28;20028;-61
2022/01/04 05:42:51;;;;;;;16.02;11.38;;;8.50;99.90;;;;;;5044343;28;20021;-61
2022/01/04 05:45:17;;;;;;;17.58;11.50;;;8.50;99.90;;;;;;5048656;28;20072;-61
2022/01/04 05:47:43;;;;;;;16.25;12.25;;;8.50;99.90;;;;;;5045818;28;20024;-61
2022/01/04 05:50:08;;;;;;;16.00;12.27;;;8.50;99.90;;;;;;5043014;28;20025;-61
2022/01/04 05:52:34;;;;;;;17.30;13.02;;;8.50;99.90;;;;;;5048655;28;20466;-61
2022/01/04 05:55:00;;;;;;;15.40;11.93;;;8.50;99.90;;;;;;5048221;28;20040;-61
2022/01/04 05:57:26;;;;;;;16.90;11.68;;;8.50;99.90;;;;;;5042742;28;20371;-61
2022/01/04 05:59:51;;;;;;;17.67;12.85;;;8.50;99.90;;;;;;5046202;28;20033;-61
2022/01/04 06:02:17;;;;;;;15.80;11.93;;;8.60;99.90;;;;;;5041728;28;20142;-60
2022/01/04 06:04:43;;;;;;;21.52;13.35;;;8.60;99.90;;;;;;5042945;28;20052;-61
2022/01/04 06:07:09;;;;;;;17.17;13.20;;;8.60;99.90;;;;;;5048319;28;20107;-61
2022/01/04 06:09:46;;;;;;;19.42;12.65;;;8.50;99.90;;;;;;5034711;28;20048;-61
2022/01/04 06:14:51;;;;;;;16.50;12.93;;;8.50;99.90;;;;;;5043890;28;20037;-61
2022/01/04 06:17:18;;;;;;;20.52;13.55;;;8.50;99.90;;;;;;5042504;28;20492;-60
2022/01/04 06:19:51;;;;;;;16.45;13.07;;;8.50;99.90;;;;;;5042571;28;20455;-61
2022/01/04 06:22:17;;;;;;;16.30;12.20;;;8.50;99.90;;;;;;5048139;28;20151;-61
2022/01/04 06:24:42;;;;;;;18.48;12.70;;;8.50;99.90;;;;;;5044892;28;20115;-61
2022/01/04 06:27:09;;;;;;;20.25;14.68;;;8.50;99.90;;;;;;5047899;28;20033;-61
2022/01/04 06:29:37;;;;;;;18.15;14.68;;;8.50;99.90;;;;;;5048013;28;20139;-60
2022/01/04 06:32:04;;;;;;;19.10;14.05;;;8.50;99.90;;;;;;5042312;28;20082;-60
2022/01/04 06:34:29;;;;;;;20.90;14.77;;;8.50;99.90;;;;;;5042548;28;20028;-60
2022/01/04 06:36:55;;;;;;;17.70;13.07;;;8.50;99.90;;;;;;5050528;28;20018;-61
2022/01/04 06:39:21;;;;;;;15.82;12.85;;;8.50;99.90;;;;;;5051748;28;20035;-61
2022/01/04 06:41:47;;;;;;;19.85;14.43;;;8.50;99.90;;;;;;5051529;28;20033;-60
2022/01/04 06:44:12;;;;;;;18.30;13.77;;;8.50;99.90;;;;;;5051905;28;20503;-60
2022/01/04 06:46:38;;;;;;;17.35;13.77;;;8.50;99.90;;;;;;5050168;28;20485;-61
2022/01/04 06:49:04;;;;;;;17.85;13.63;;;8.50;99.90;;;;;;5050954;28;20044;-61
2022/01/04 06:51:30;;;;;;;22.13;14.27;;;8.50;99.90;;;;;;5035031;28;20021;-60
2022/01/04 06:53:55;;;;;;;19.02;14.15;;;8.50;99.90;;;;;;5036693;28;20112;-60
2022/01/04 06:56:21;;;;;;;19.38;13.70;;;8.50;99.90;;;;;;5054463;28;20052;-61
2022/01/04 06:58:46;;;;;;;16.85;13.38;;;8.50;99.90;;;;;;5048720;28;20547;-60
2022/01/04 07:01:12;;;;;;;18.73;13.55;;;8.50;99.90;;;;;;5035098;28;20091;-60
2022/01/04 07:03:37;;;;;;;20.33;14.65;;;8.50;99.90;;;;;;5034570;28;20025;-61
2022/01/04 07:06:03;;;;;;;19.58;14.35;;;8.50;99.90;;;;;;5042738;28;20116;-61
2022/01/04 07:08:29;;;;;;;21.50;14.65;;;8.50;99.90;;;;;;5035283;28;20033;-60
2022/01/04 07:10:54;;;;;;;21.48;15.13;;;8.50;99.90;;;;;;5035211;28;20452;-61
2022/01/04 07:13:20;;;;;;;24.40;15.70;;;8.50;99.90;;;;;;5035435;28;20061;-61
2022/01/04 07:15:48;;;;;;;23.25;15.82;;;8.50;99.90;;;;;;5038351;28;20025;-61
2022/01/04 07:18:14;;;;;;;24.55;16.52;;;8.50;99.90;;;;;;5035154;28;20025;-61
2022/01/04 07:20:39;;;;;;;20.63;14.65;;;8.50;99.90;;;;;;5035882;28;20355;-61
2022/01/04 07:23:05;;;;;;;23.05;15.85;;;8.50;99.90;;;;;;5053931;28;20532;-61
2022/01/04 07:25:30;;;;;;;23.63;16.00;;;8.50;99.90;;;;;;5054974;28;20029;-61
2022/01/04 07:27:59;;;;;;;24.85;15.85;;;8.50;99.90;;;;;;5055242;28;20596;-61
2022/01/04 07:30:24;;;;;;;21.05;15.07;;;8.50;99.90;;;;;;5055083;28;20028;-61
2022/01/04 07:32:50;;;;;;;22.83;15.55;;;8.50;99.90;;;;;;5054888;28;20029;-61
2022/01/04 07:35:15;;;;;;;26.75;17.30;;;8.50;99.90;;;;;;5054889;28;20028;-61
2022/01/04 07:37:41;;;;;;;27.35;16.98;;;8.40;99.90;;;;;;5053584;28;20036;-61
2022/01/04 07:40:07;;;;;;;24.00;16.60;;;8.40;99.90;;;;;;5053577;28;20028;-61
2022/01/04 07:42:33;;;;;;;27.30;18.23;;;8.40;99.90;;;;;;5053476;28;20025;-61
2022/01/04 07:44:59;;;;;;;25.70;16.65;;;8.40;99.90;;;;;;5054817;28;20033;-61
2022/01/04 07:47:24;;;;;;;24.00;16.38;;;8.40;99.90;;;;;;5054667;28;20028;-61
2022/01/04 07:49:50;;;;;;;26.92;16.88;;;8.40;99.90;;;;;;5054711;28;20052;-61
2022/01/04 07:52:16;;;;;;;25.65;16.88;;;8.40;99.90;;;;;;5047864;28;20032;-61
2022/01/04 07:54:43;;;;;;;27.83;17.48;;;8.40;99.90;;;;;;5050665;28;20032;-61
2022/01/04 07:57:08;;;;;;;25.52;16.60;;;8.50;99.90;;;;;;5045358;28;20516;-60
2022/01/04 07:59:34;;;;;;;21.75;15.65;;;8.50;99.90;;;;;;5044948;28;20108;-61
2022/01/04 08:02:00;;;;;;;25.92;16.55;;;8.50;99.90;;;;;;5042834;28;20474;-61
2022/01/04 08:04:26;;;;;;;24.20;16.63;;;8.50;99.90;;;;;;5039470;28;20017;-61
2022/01/04 08:06:51;;;;;;;28.10;16.92;;;8.50;99.90;;;;;;5038714;28;20048;-62
2022/01/04 08:09:17;;;;;;;25.25;16.50;;;8.60;99.90;;;;;;5034119;28;20033;-61
2022/01/04 08:11:42;;;;;;;25.90;17.13;;;8.50;99.90;;;;;;5045840;28;20447;-61
2022/01/04 08:14:08;;;;;;;29.13;18.42;;;8.50;99.90;;;;;;5037555;28;20100;-61
2022/01/04 08:16:34;;;;;;;31.00;19.33;;;8.50;99.90;;;;;;5042931;28;20071;-61
2022/01/04 08:19:00;;;;;;;29.08;17.90;;;8.50;99.90;;;;;;5041542;28;20025;-60
2022/01/04 08:21:26;;;;;;;25.67;17.60;;;8.50;99.90;;;;;;5051822;28;20111;-61
2022/01/04 08:23:52;;;;;;;27.70;17.98;;;8.50;99.90;;;;;;5036279;28;20029;-60
2022/01/04 08:26:18;;;;;;;28.05;17.98;;;8.40;99.90;;;;;;5033874;28;20036;-61
2022/01/04 08:28:44;;;;;;;31.05;18.15;;;8.50;99.90;;;;;;5034065;28;20482;-60
2022/01/04 08:31:11;;;;;;;31.13;18.33;;;8.50;99.90;;;;;;5033889;28;20035;-60
2022/01/04 08:33:37;;;;;;;30.33;18.63;;;8.50;99.90;;;;;;5038897;28;20020;-61
2022/01/04 08:36:04;;;;;;;27.92;18.33;;;8.50;99.90;;;;;;5052773;28;20381;-61
2022/01/04 08:38:29;;;;;;;28.75;19.42;;;8.50;99.90;;;;;;5044691;28;20079;-61
2022/01/04 08:40:54;;;;;;;28.35;19.80;;;8.60;99.90;;;;;;5051733;28;20025;-60
2022/01/04 08:43:20;;;;;;;28.92;18.67;;;8.50;99.90;;;;;;5049595;28;20485;-61
2022/01/04 08:45:46;;;;;;;24.92;18.08;;;8.60;99.90;;;;;;5048780;28;20033;-61
2022/01/04 08:48:11;;;;;;;27.77;17.65;;;8.50;99.90;;;;;;5041275;28;20022;-61
2022/01/04 08:50:37;;;;;;;31.67;19.92;;;8.60;99.90;;;;;;5037085;28;20107;-61
2022/01/04 08:53:03;;;;;;;31.40;19.30;;;8.60;99.90;;;;;;5051340;28;20063;-61
2022/01/04 08:55:29;;;;;;;32.13;20.27;;;8.60;99.90;;;;;;5052776;28;20017;-60
2022/01/04 08:57:54;;;;;;;32.28;21.00;;;8.60;99.90;;;;;;5053186;28;20032;-60
2022/01/04 09:00:20;;;;;;;29.00;19.95;;;8.60;99.90;;;;;;5051631;28;20042;-60
2022/01/04 09:02:46;;;;;;;28.92;20.08;;;8.60;99.90;;;;;;5052514;28;20035;-60
2022/01/04 09:05:12;;;;;;;29.00;19.35;;;8.60;99.90;;;;;;5049078;28;20033;-61
2022/01/04 09:07:38;;;;;;;30.02;19.33;;;8.60;99.90;;;;;;5042341;28;20028;-60
2022/01/04 09:10:04;;;;;;;28.13;19.45;;;8.70;99.90;;;;;;5030336;28;20049;-60
2022/01/04 09:12:43;;;;;;;30.63;19.52;;;8.70;99.90;;;;;;5032482;28;20484;-61
2022/01/04 09:15:31;;;;;;;31.55;19.58;;;8.70;99.90;;;;;;5032544;28;20433;-61
2022/01/04 09:20:45;;;;;;;30.08;18.42;;;8.70;99.90;;;;;;5033388;28;20440;-61
2022/01/04 09:23:15;;;;;;;28.25;19.27;;;8.70;99.90;;;;;;5052637;28;20013;-61
2022/01/04 09:25:41;;;;;;;30.58;20.65;;;8.70;99.90;;;;;;5052415;28;20021;-61
2022/01/04 09:28:07;;;;;;;30.55;19.83;;;8.70;99.90;;;;;;5052521;28;20051;-61
2022/01/04 09:30:33;;;;;;;27.90;19.13;;;8.70;99.90;;;;;;5052060;28;20021;-61
2022/01/04 09:33:00;;;;;;;26.63;18.70;;;8.80;99.90;;;;;;5052093;28;20033;-61
2022/01/04 09:35:25;;;;;;;30.17;20.23;;;8.80;99.90;;;;;;5051744;28;20488;-61
2022/01/04 09:37:51;;;;;;;31.13;20.65;;;8.70;99.90;;;;;;5050954;28;20025;-61
2022/01/04 09:40:16;;;;;;;31.77;21.38;;;8.80;99.90;;;;;;5041263;28;20029;-61
2022/01/04 09:42:42;;;;;;;30.35;20.63;;;8.80;99.90;;;;;;5051706;28;20033;-61
2022/01/04 09:45:09;;;;;;;26.05;19.33;;;8.80;99.90;;;;;;5051886;28;20492;-61
2022/01/04 09:47:34;;;;;;;28.65;19.83;;;8.80;99.90;;;;;;5052016;28;20037;-61
2022/01/04 09:50:01;;;;;;;29.58;19.75;;;8.80;99.90;;;;;;5051740;28;20029;-61
2022/01/04 09:52:27;;;;;;;27.17;19.70;;;8.90;99.90;;;;;;5051600;28;20098;-61
2022/01/04 09:54:53;;;;;;;28.33;19.92;;;8.80;99.90;;;;;;5051863;28;20524;-61
2022/01/04 09:57:20;;;;;;;28.60;20.20;;;8.90;99.90;;;;;;5051750;28;20155;-61
2022/01/04 09:59:46;;;;;;;30.50;19.77;;;8.90;99.90;;;;;;5051431;28;20055;-61
2022/01/04 10:02:17;;;;;;;29.75;19.33;;;8.90;99.90;;;;;;5051097;28;20061;-61
2022/01/04 10:04:43;;;;;;;21.88;16.13;;;8.90;99.90;;;;;;5043523;28;20128;-60
2022/01/04 10:07:10;;;;;;;25.13;16.45;;;8.90;99.90;;;;;;5032898;28;20390;-61
2022/01/04 10:09:37;;;;;;;25.85;17.90;;;9.00;99.90;;;;;;5031306;28;20045;-61
2022/01/04 10:12:05;;;;;;;25.25;17.38;;;9.00;99.90;;;;;;5031417;28;20486;-61
2022/01/04 10:14:37;;;;;;;30.15;20.83;;;9.00;99.90;;;;;;5031610;28;20116;-61
2022/01/04 10:17:15;;;;;;;30.20;18.60;;;9.10;99.90;;;;;;5045282;28;20493;-61
2022/01/04 10:19:44;;;;;;;29.17;18.55;;;9.10;99.90;;;;;;5032780;28;20079;-61
2022/01/04 10:22:23;;;;;;;29.33;20.10;;;9.10;99.90;;;;;;5043975;28;20104;-61
2022/01/04 10:24:50;;;;;;;29.07;20.43;;;9.10;99.90;;;;;;5050236;28;20392;-61
2022/01/04 10:27:25;;;;;;;29.35;20.88;;;9.10;99.90;;;;;;5051277;28;20025;-61
2022/01/04 10:30:12;;;;;;;28.20;18.80;;;9.10;99.90;;;;;;5049259;28;20074;-62
2022/01/04 10:32:49;;;;;;;28.98;19.52;;;9.10;99.90;;;;;;5049477;28;20033;-61
2022/01/04 10:35:40;;;;;;;29.98;19.10;;;9.10;99.90;;;;;;5049880;28;20432;-61
2022/01/04 10:38:38;;;;;;;26.95;18.17;;;9.20;99.90;;;;;;5045164;28;20037;-61
2022/01/04 10:41:11;;;;;;;24.30;17.50;;;9.20;99.90;;;;;;5049491;28;20112;-60
2022/01/04 10:43:54;;;;;;;25.20;16.80;;;9.10;99.90;;;;;;5050851;28;20028;-61
2022/01/04 10:46:33;;;;;;;22.98;16.27;;;9.20;99.90;;;;;;5051221;28;20045;-61
2022/01/04 10:48:59;;;;;;;25.77;18.25;;;9.20;99.90;;;;;;5051035;28;20029;-61
2022/01/04 10:51:27;;;;;;;27.50;18.83;;;9.10;99.90;;;;;;5050901;28;20033;-61
2022/01/04 10:54:00;;;;;;;27.58;18.60;;;9.10;99.90;;;;;;5050814;28;20025;-61
2022/01/04 10:56:34;;;;;;;29.17;19.33;;;9.10;99.90;;;;;;5051152;28;20477;-61
2022/01/04 10:59:03;;;;;;;22.85;18.23;;;9.10;99.90;;;;;;5050977;28;20468;-61
2022/01/04 11:01:37;;;;;;;29.00;17.63;;;9.10;99.90;;;;;;5051366;28;20107;-61
2022/01/04 11:04:03;;;;;;;23.40;16.85;;;9.10;99.90;;;;;;5038433;28;20037;-61
2022/01/04 11:06:37;;;;;;;22.92;16.38;;;9.10;99.90;;;;;;5039261;28;20360;-60
2022/01/04 11:09:04;;;;;;;23.83;15.93;;;9.10;99.90;;;;;;5050116;28;20060;-60
2022/01/04 11:11:30;;;;;;;20.35;15.32;;;9.00;99.90;;;;;;5041454;28;20060;-61
2022/01/04 11:13:55;;;;;;;23.13;15.57;;;9.10;99.90;;;;;;5046330;28;20072;-61
2022/01/04 11:16:23;;;;;;;18.85;13.57;;;9.00;99.90;;;;;;5048923;28;20048;-61
2022/01/04 11:18:52;;;;;;;16.05;11.93;;;9.00;99.90;;;;;;5029637;28;20036;-60
2022/01/04 11:21:28;;;;;;;14.75;10.32;;;9.00;99.90;;;;;;5029512;28;20025;-61
2022/01/04 11:23:55;;;;;;;11.48;7.60;;;9.00;99.90;;;;;;5031167;28;20025;-61
2022/01/04 11:26:22;;;;;;;8.27;6.22;;;9.00;99.90;;;;;;5036487;28;20177;-61
2022/01/04 11:28:50;;;;;;;10.75;6.30;;;9.00;99.90;;;;;;5030453;28;20037;-61
2022/01/04 11:31:30;;;;;;;7.97;5.53;;;9.00;99.90;;;;;;5035403;28;20022;-61
2022/01/04 11:34:05;;;;;;;9.90;6.55;;;9.00;99.90;;;;;;5030724;28;20048;-61
2022/01/04 11:36:35;;;;;;;9.40;6.20;;;8.90;99.90;;;;;;5037651;28;20052;-60
2022/01/04 11:39:00;;;;;;;9.75;7.38;;;8.90;99.90;;;;;;5030160;28;20022;-61
2022/01/04 11:41:42;;;;;;;13.20;7.80;;;8.90;99.90;;;;;;5031975;28;20033;-61
2022/01/04 11:44:24;;;;;;;15.55;8.50;;;8.90;99.90;;;;;;5034704;28;20087;-61
2022/01/04 11:47:11;;;;;;;14.77;8.02;;;8.80;99.90;;;;;;5034170;28;20029;-61
2022/01/04 11:49:40;;;;;;;13.07;9.38;;;8.80;99.90;;;;;;5034178;28;20029;-61
2022/01/04 11:52:08;;;;;;;11.77;8.45;;;8.80;99.90;;;;;;5049481;28;20025;-60
2022/01/04 11:54:35;;;;;;;11.57;7.05;;;8.80;99.90;;;;;;5033689;28;20029;-61
2022/01/04 11:57:08;;;;;;;11.68;7.10;;;8.80;99.90;;;;;;5036317;28;20083;-60
2022/01/04 11:59:40;;;;;;;9.45;5.60;;;8.80;99.90;;;;;;5037338;28;20469;-60
2022/01/04 12:02:31;;;;;;;6.20;4.55;;;8.80;99.90;;;;;;5040760;28;20060;-61
2022/01/04 12:05:21;;;;;;;4.32;2.70;;;8.80;99.90;;;;;;5038085;28;20440;-61
2022/01/04 12:07:51;;;;;;;;;;;8.70;99.90;;;;;;5044288;28;20013;-61
2022/01/04 12:10:22;;;;;;;4.40;2.40;;;8.60;99.90;;;;;;5038539;28;19912;-61
2022/01/04 12:13:04;;;;;;;4.32;1.75;;;8.60;99.90;;;;;;5047805;28;20033;-60
2022/01/04 12:15:33;;;;;;;3.97;1.55;;;8.60;99.90;;;;;;5049316;28;20507;-61
2022/01/04 12:18:06;;;;;;;4.53;1.83;;;8.60;99.90;;;;;;5049607;28;20040;-61
2022/01/04 12:20:46;;;;;;;2.88;1.20;;;8.60;99.90;;;;;;5042369;28;20021;-61
2022/01/04 12:23:30;;;;;;;2.25;0.95;;;8.50;99.90;;;;;;5037832;28;20017;-60
2022/01/04 12:26:04;;;;;;;3.92;1.20;;;8.50;99.90;;;;;;5045705;28;20029;-60
2022/01/04 12:28:40;;;;;;;1.42;0.60;;;8.60;99.90;;;;;;5051912;28;20029;-61
2022/01/04 12:31:18;;;;;;;3.83;0.90;;;8.50;99.90;;;;;;5056476;28;20083;-60
2022/01/04 12:33:55;;;;;;;2.65;0.70;;;8.60;99.90;;;;;;5043719;28;20016;-61
2022/01/04 12:36:46;;;;;;;2.58;0.77;;;8.60;99.90;;;;;;5050665;28;20485;-60
2022/01/04 12:39:17;;;;;;;3.60;1.00;;;8.60;99.90;;;;;;5051496;28;20064;-60
2022/01/04 12:41:45;;;;;;;3.80;0.70;;;8.60;99.90;;;;;;5043664;28;20056;-60
2022/01/04 12:44:14;;;;;;;3.95;1.30;;;8.60;99.90;;;;;;5044473;28;20060;-61
2022/01/04 12:46:46;;;;;;;3.95;0.70;;;8.60;99.90;;;;;;5032640;28;20053;-60
2022/01/04 12:49:15;;;;;;;4.57;0.75;;;8.70;99.90;;;;;;5033133;28;20095;-61
2022/01/04 12:51:56;;;;;;;2.67;0.80;;;8.70;99.90;;;;;;5033011;28;20096;-61